Station info - map view · info · telemetry · weather · raw · status · beacons · messages · bulletins · browse · moving · my account
Callsign, ship name or locator: Clear       
It is possible to search using wildcards (*?) after a prefix. Example: OH*
APRS station KI7UVX-9 - show graphs
Map loading...
Location: 48°00.82' N 122°03.82' W - locator CN88XA23IG - show map - static map
173.9 yards South bearing 178° from Lake Stevens, Snohomish County, Washington, United States [?]
2.2 miles Northeast bearing 52° from West Lake Stevens, Snohomish County, Washington, United States
30.8 miles Northeast bearing 24° from Seattle, King County, Washington, United States
66.7 miles Southeast bearing 115° from Victoria, British Columbia, Canada
Last position: 2019-06-03 17:10:16 EDT (13d 4h26m ago)
2019-06-03 14:10:16 PDT local time at Lake Stevens, United States [?]
Altitude: 236 ft
Course: 179°
Speed: 2 MPH
Device: Open Source: APRSdroid (app, Android)
Last path: KI7UVX-9>APDR15 via JUPITR*,WIDE2-1,qAR,W7EEE (good)
Positions stored: 48
Stations near current position of KI7UVX-9 - show more
callsign distance last heard - EDT      callsign distance last heard - EDT
N7OBI-70.8 miles 288°2019-05-21 23:00:04 KD7TTY-90.8 miles 357°2019-06-16 19:09:49
KD7TTY-50.9 miles 11°2019-06-16 21:28:34 KD7TTY B0.9 miles 10°2019-06-16 21:24:22
KD7TTY-B0.9 miles 10°2019-06-16 21:24:32 PS-KD7TTY0.9 miles 10°2019-06-16 21:01:03
CW91071.0 miles 11°2019-06-16 21:31:38 EW67741.2 miles 158°2019-06-16 21:34:05
RA-91.3 miles 283°2019-05-28 18:22:28 KB7SOL-71.8 miles 295°2019-06-15 10:44:19
N7OBI-92.1 miles 238°2019-06-16 21:37:06 K9VD2.1 miles 158°2019-06-16 21:28:19
THE DOGHOUSE 23.0 miles 186°2019-06-16 12:39:59 CW48053.0 miles 185°2019-06-16 21:30:02
KC7CM B3.1 miles 108°2019-06-16 21:25:35 KC7CM-B3.1 miles 108°2019-06-16 21:25:45
KB7SOL3.2 miles 31°2019-05-21 00:01:45 KB7SOL-93.2 miles 31°2019-05-19 23:03:55
AE7EV-103.3 miles 98°2019-06-16 12:15:07 N7NIP-24.1 miles 128°2019-05-25 11:58:09
Stations which heard KI7UVX-9 directly on radio –
callsign pkts first heard - EDT last heard longest (tx => rx) longest at - EDT
OLY 3 2019-06-03 15:33:21 2019-06-03 15:34:26 CN87NA > CN87NA 2.0 miles 202° 2019-06-03 15:34:26
MEGLER 3 2019-06-03 12:45:28 2019-06-03 12:48:53 CN86CE > CN86BG 7.8 miles 325° 2019-06-03 12:48:53
W7PKT 3 2019-06-03 16:18:03 2019-06-03 16:26:31 CN87UN > CN87VH 17.9 miles 162° 2019-06-03 16:26:31
K7NVH-1 4 2019-06-03 16:52:52 2019-06-03 16:58:49 CN87WX > CN87VX 3.5 miles 263° 2019-06-03 16:58:49
KF7DJC-10 1 2019-06-03 15:01:40 2019-06-03 15:01:40 CN86MQ > CN86MP 0.9 miles 152° 2019-06-03 15:01:40
WSEA 1 2019-06-03 16:29:11 2019-06-03 16:29:11 CN87UO > CN87TM 4.7 miles 215° 2019-06-03 16:29:11
W7NPC-10 1 2019-06-03 16:27:48 2019-06-03 16:27:48 CN87UN > CN87RP 11.9 miles 297° 2019-06-03 16:27:48
KNAPPA 4 2019-06-03 13:04:42 2019-06-03 13:07:29 CN86EE > CN86FE 1.5 miles 80° 2019-06-03 13:04:42
NICOLI 1 2019-06-03 13:28:17 2019-06-03 13:28:17 CN86KC > CN86GC 14.0 miles 266° 2019-06-03 13:28:17
JUPITR 1 2019-06-03 17:10:16 2019-06-03 17:10:16 CN88XA > CN87MQ 47.3 miles 243° 2019-06-03 17:10:16
W7DG-5 11 2019-06-03 13:37:02 2019-06-03 14:35:38 CN86MC > CN86ME 6.1 miles 5° 2019-06-03 13:38:09
AK9E-1 2 2019-06-03 13:12:46 2019-06-03 13:15:33 CN86HD > CN86HE 2.1 miles 349° 2019-06-03 13:15:33
KB7CZ-15 1 2019-06-03 14:27:20 2019-06-03 14:27:20 CN86NC > CN86MB 4.4 miles 206° 2019-06-03 14:27:20
KG7SXF-10 1 2019-06-03 16:47:50 2019-06-03 16:47:50 CN87VU > CN87UV 1.6 miles 305° 2019-06-03 16:47:50

Only position packets which were originated by the station are shown here. The range statistics show some extra long hops, because some digipeaters do not correctly add themselves to the digipeater path. Please check the raw packets.
About this site
This page shows real-time information collected from the Automatic Position Reporting System Internet network (APRS-IS). APRS is used by amateur (ham) radio operators to transmit real-time position information, weather data, telemetry and messages over the radio. A vehicle equipped with a GPS receiver, a VHF transmitter or HF transceiver and a small computer device called a tracker transmits it's location, speed and course in a small data packet, which is then received by a nearby iGate receiving site which forwards the packet on the Internet. Systems connected to the Internet can send information on the APRS-IS without a radio transmitter, or collect and display information transmitted anywhere in the world.
FAQ · Blog · Discussion group · Linking to aprs.fi · AIS sites · Service status · Database statistics · Advertising on aprs.fi · Technical details · API · Change log · Planned changes · Credits and thanks · Terms Of Service · iPhone/iPad APRS